sensor_id;sensor_type;location;lat;lon;timestamp;P1;durP1;ratioP1;P2;durP2;ratioP2
43891;SDS011;29555;45.350;5.578;2024-02-04T00:00:18;30.55;;;16.42;;
43891;SDS011;29555;45.350;5.578;2024-02-04T00:02:44;31.08;;;15.95;;
43891;SDS011;29555;45.350;5.578;2024-02-04T00:05:09;22.75;;;13.20;;
43891;SDS011;29555;45.350;5.578;2024-02-04T00:07:35;24.33;;;14.90;;
43891;SDS011;29555;45.350;5.578;2024-02-04T00:10:01;24.95;;;12.02;;
43891;SDS011;29555;45.350;5.578;2024-02-04T00:12:26;19.27;;;10.90;;
43891;SDS011;29555;45.350;5.578;2024-02-04T00:14:52;17.20;;;10.07;;
43891;SDS011;29555;45.350;5.578;2024-02-04T00:17:17;21.83;;;11.27;;
43891;SDS011;29555;45.350;5.578;2024-02-04T00:19:43;18.55;;;11.63;;
43891;SDS011;29555;45.350;5.578;2024-02-04T00:22:08;18.40;;;11.93;;
43891;SDS011;29555;45.350;5.578;2024-02-04T00:24:34;18.30;;;10.73;;
43891;SDS011;29555;45.350;5.578;2024-02-04T00:26:59;22.15;;;12.48;;
43891;SDS011;29555;45.350;5.578;2024-02-04T00:29:25;29.67;;;12.38;;
43891;SDS011;29555;45.350;5.578;2024-02-04T00:31:50;21.55;;;11.82;;
43891;SDS011;29555;45.350;5.578;2024-02-04T00:34:15;19.63;;;10.32;;
43891;SDS011;29555;45.350;5.578;2024-02-04T00:36:41;19.50;;;11.85;;
43891;SDS011;29555;45.350;5.578;2024-02-04T00:39:06;20.80;;;12.57;;
43891;SDS011;29555;45.350;5.578;2024-02-04T00:41:32;16.13;;;10.23;;
43891;SDS011;29555;45.350;5.578;2024-02-04T00:43:58;21.70;;;12.32;;
43891;SDS011;29555;45.350;5.578;2024-02-04T00:46:23;27.67;;;16.38;;
43891;SDS011;29555;45.350;5.578;2024-02-04T00:48:49;48.97;;;23.90;;
43891;SDS011;29555;45.350;5.578;2024-02-04T00:51:14;33.13;;;18.25;;
43891;SDS011;29555;45.350;5.578;2024-02-04T00:53:42;25.33;;;13.65;;
43891;SDS011;29555;45.350;5.578;2024-02-04T00:56:08;23.15;;;13.57;;
43891;SDS011;29555;45.350;5.578;2024-02-04T00:58:34;31.77;;;14.48;;
43891;SDS011;29555;45.350;5.578;2024-02-04T01:01:00;25.38;;;12.45;;
43891;SDS011;29555;45.350;5.578;2024-02-04T01:03:25;21.55;;;12.80;;
43891;SDS011;29555;45.350;5.578;2024-02-04T01:05:51;21.85;;;12.40;;
43891;SDS011;29555;45.350;5.578;2024-02-04T01:08:16;19.83;;;11.65;;
43891;SDS011;29555;45.350;5.578;2024-02-04T01:10:41;18.48;;;10.55;;
43891;SDS011;29555;45.350;5.578;2024-02-04T01:13:07;22.35;;;10.95;;
43891;SDS011;29555;45.350;5.578;2024-02-04T01:15:32;18.60;;;11.07;;
43891;SDS011;29555;45.350;5.578;2024-02-04T01:17:57;22.42;;;11.20;;
43891;SDS011;29555;45.350;5.578;2024-02-04T01:20:24;24.25;;;11.85;;
43891;SDS011;29555;45.350;5.578;2024-02-04T01:22:50;21.15;;;11.50;;
43891;SDS011;29555;45.350;5.578;2024-02-04T01:25:15;21.95;;;11.25;;
43891;SDS011;29555;45.350;5.578;2024-02-04T01:27:40;15.02;;;10.63;;
43891;SDS011;29555;45.350;5.578;2024-02-04T01:30:07;18.90;;;10.82;;
43891;SDS011;29555;45.350;5.578;2024-02-04T01:32:32;21.30;;;11.00;;
43891;SDS011;29555;45.350;5.578;2024-02-04T01:34:58;21.48;;;12.20;;
43891;SDS011;29555;45.350;5.578;2024-02-04T01:37:23;21.27;;;12.35;;
43891;SDS011;29555;45.350;5.578;2024-02-04T01:39:48;17.25;;;10.63;;
43891;SDS011;29555;45.350;5.578;2024-02-04T01:42:14;25.35;;;11.68;;
43891;SDS011;29555;45.350;5.578;2024-02-04T01:44:39;17.65;;;11.15;;
43891;SDS011;29555;45.350;5.578;2024-02-04T01:47:05;17.73;;;10.80;;
43891;SDS011;29555;45.350;5.578;2024-02-04T01:49:30;18.30;;;10.43;;
43891;SDS011;29555;45.350;5.578;2024-02-04T01:51:56;15.73;;;10.68;;
43891;SDS011;29555;45.350;5.578;2024-02-04T01:54:22;24.30;;;11.10;;
43891;SDS011;29555;45.350;5.578;2024-02-04T01:56:50;13.27;;;8.85;;
43891;SDS011;29555;45.350;5.578;2024-02-04T01:59:17;15.48;;;9.95;;
43891;SDS011;29555;45.350;5.578;2024-02-04T02:01:44;16.27;;;11.05;;
43891;SDS011;29555;45.350;5.578;2024-02-04T02:04:12;22.80;;;11.20;;
43891;SDS011;29555;45.350;5.578;2024-02-04T02:06:38;20.08;;;10.57;;
43891;SDS011;29555;45.350;5.578;2024-02-04T02:09:06;14.43;;;9.55;;
43891;SDS011;29555;45.350;5.578;2024-02-04T02:11:45;15.68;;;10.45;;
43891;SDS011;29555;45.350;5.578;2024-02-04T02:14:18;18.77;;;9.15;;
43891;SDS011;29555;45.350;5.578;2024-02-04T02:16:48;19.67;;;9.88;;
43891;SDS011;29555;45.350;5.578;2024-02-04T02:24:55;13.45;;;9.10;;
43891;SDS011;29555;45.350;5.578;2024-02-04T02:27:22;17.35;;;10.93;;
43891;SDS011;29555;45.350;5.578;2024-02-04T02:29:47;20.48;;;12.48;;
43891;SDS011;29555;45.350;5.578;2024-02-04T02:32:13;22.15;;;10.48;;
43891;SDS011;29555;45.350;5.578;2024-02-04T02:34:38;18.27;;;10.60;;
43891;SDS011;29555;45.350;5.578;2024-02-04T02:40:29;19.95;;;9.90;;
43891;SDS011;29555;45.350;5.578;2024-02-04T02:42:54;18.50;;;11.15;;
43891;SDS011;29555;45.350;5.578;2024-02-04T02:45:21;19.73;;;10.32;;
43891;SDS011;29555;45.350;5.578;2024-02-04T02:47:48;16.05;;;10.27;;
43891;SDS011;29555;45.350;5.578;2024-02-04T02:50:15;17.80;;;10.35;;
43891;SDS011;29555;45.350;5.578;2024-02-04T02:52:41;16.13;;;10.32;;
43891;SDS011;29555;45.350;5.578;2024-02-04T02:55:06;20.10;;;10.32;;
43891;SDS011;29555;45.350;5.578;2024-02-04T02:57:31;16.65;;;10.02;;
43891;SDS011;29555;45.350;5.578;2024-02-04T02:59:57;15.82;;;9.45;;
43891;SDS011;29555;45.350;5.578;2024-02-04T03:02:22;19.00;;;10.05;;
43891;SDS011;29555;45.350;5.578;2024-02-04T03:04:47;19.95;;;10.48;;
43891;SDS011;29555;45.350;5.578;2024-02-04T03:07:13;14.68;;;9.63;;
43891;SDS011;29555;45.350;5.578;2024-02-04T03:09:38;15.40;;;9.52;;
43891;SDS011;29555;45.350;5.578;2024-02-04T03:12:04;19.75;;;9.48;;
43891;SDS011;29555;45.350;5.578;2024-02-04T03:14:30;15.70;;;8.73;;
43891;SDS011;29555;45.350;5.578;2024-02-04T03:16:55;18.60;;;10.98;;
43891;SDS011;29555;45.350;5.578;2024-02-04T03:19:21;16.85;;;9.88;;
43891;SDS011;29555;45.350;5.578;2024-02-04T03:21:47;18.98;;;11.10;;
43891;SDS011;29555;45.350;5.578;2024-02-04T03:24:12;17.73;;;9.98;;
43891;SDS011;29555;45.350;5.578;2024-02-04T03:26:38;23.05;;;11.90;;
43891;SDS011;29555;45.350;5.578;2024-02-04T03:29:03;18.08;;;11.40;;
43891;SDS011;29555;45.350;5.578;2024-02-04T03:31:30;26.70;;;13.35;;
43891;SDS011;29555;45.350;5.578;2024-02-04T03:33:56;26.50;;;13.82;;
43891;SDS011;29555;45.350;5.578;2024-02-04T03:36:22;23.08;;;11.95;;
43891;SDS011;29555;45.350;5.578;2024-02-04T03:38:48;22.42;;;12.70;;
43891;SDS011;29555;45.350;5.578;2024-02-04T03:41:14;18.85;;;10.23;;
43891;SDS011;29555;45.350;5.578;2024-02-04T03:43:40;20.80;;;11.07;;
43891;SDS011;29555;45.350;5.578;2024-02-04T03:46:05;14.98;;;9.40;;
43891;SDS011;29555;45.350;5.578;2024-02-04T03:48:30;15.80;;;10.50;;
43891;SDS011;29555;45.350;5.578;2024-02-04T03:50:56;15.82;;;9.05;;
43891;SDS011;29555;45.350;5.578;2024-02-04T03:53:21;21.27;;;10.15;;
43891;SDS011;29555;45.350;5.578;2024-02-04T03:55:48;18.95;;;10.48;;
43891;SDS011;29555;45.350;5.578;2024-02-04T03:58:14;16.02;;;8.45;;
43891;SDS011;29555;45.350;5.578;2024-02-04T04:00:39;16.85;;;10.18;;
43891;SDS011;29555;45.350;5.578;2024-02-04T04:03:05;14.95;;;9.35;;
43891;SDS011;29555;45.350;5.578;2024-02-04T04:05:30;15.20;;;9.25;;
43891;SDS011;29555;45.350;5.578;2024-02-04T04:07:56;15.48;;;9.30;;
43891;SDS011;29555;45.350;5.578;2024-02-04T04:10:21;15.43;;;8.70;;
43891;SDS011;29555;45.350;5.578;2024-02-04T04:12:46;13.60;;;8.23;;
43891;SDS011;29555;45.350;5.578;2024-02-04T04:15:12;14.88;;;8.35;;
43891;SDS011;29555;45.350;5.578;2024-02-04T04:17:37;14.50;;;8.38;;
43891;SDS011;29555;45.350;5.578;2024-02-04T04:20:03;18.05;;;9.57;;
43891;SDS011;29555;45.350;5.578;2024-02-04T04:22:30;11.95;;;6.45;;
43891;SDS011;29555;45.350;5.578;2024-02-04T04:24:55;12.35;;;8.02;;
43891;SDS011;29555;45.350;5.578;2024-02-04T04:27:20;13.90;;;7.55;;
43891;SDS011;29555;45.350;5.578;2024-02-04T04:29:46;9.98;;;6.45;;
43891;SDS011;29555;45.350;5.578;2024-02-04T04:32:11;14.73;;;7.50;;
43891;SDS011;29555;45.350;5.578;2024-02-04T04:34:36;13.57;;;7.68;;
43891;SDS011;29555;45.350;5.578;2024-02-04T04:37:02;14.52;;;8.18;;
43891;SDS011;29555;45.350;5.578;2024-02-04T04:39:27;9.93;;;7.40;;
43891;SDS011;29555;45.350;5.578;2024-02-04T04:41:53;12.45;;;7.65;;
43891;SDS011;29555;45.350;5.578;2024-02-04T04:44:18;19.10;;;9.75;;
43891;SDS011;29555;45.350;5.578;2024-02-04T04:46:43;17.92;;;9.10;;
43891;SDS011;29555;45.350;5.578;2024-02-04T04:49:09;17.75;;;9.30;;
43891;SDS011;29555;45.350;5.578;2024-02-04T04:51:34;15.88;;;7.97;;
43891;SDS011;29555;45.350;5.578;2024-02-04T04:54:00;17.83;;;7.88;;
43891;SDS011;29555;45.350;5.578;2024-02-04T04:56:25;16.73;;;7.88;;
43891;SDS011;29555;45.350;5.578;2024-02-04T04:58:51;16.92;;;10.02;;
43891;SDS011;29555;45.350;5.578;2024-02-04T05:01:16;18.02;;;9.77;;
43891;SDS011;29555;45.350;5.578;2024-02-04T05:03:42;14.40;;;7.70;;
43891;SDS011;29555;45.350;5.578;2024-02-04T05:06:07;12.50;;;8.52;;
43891;SDS011;29555;45.350;5.578;2024-02-04T05:08:33;14.57;;;8.55;;
43891;SDS011;29555;45.350;5.578;2024-02-04T05:10:58;12.38;;;7.00;;
43891;SDS011;29555;45.350;5.578;2024-02-04T05:13:24;13.60;;;8.60;;
43891;SDS011;29555;45.350;5.578;2024-02-04T05:15:49;13.60;;;6.70;;
43891;SDS011;29555;45.350;5.578;2024-02-04T05:18:14;12.25;;;7.55;;
43891;SDS011;29555;45.350;5.578;2024-02-04T05:20:40;11.77;;;7.43;;
43891;SDS011;29555;45.350;5.578;2024-02-04T05:23:05;11.60;;;6.47;;
43891;SDS011;29555;45.350;5.578;2024-02-04T05:25:30;9.45;;;5.10;;
43891;SDS011;29555;45.350;5.578;2024-02-04T05:27:56;11.68;;;6.07;;
43891;SDS011;29555;45.350;5.578;2024-02-04T05:30:22;10.38;;;5.32;;
43891;SDS011;29555;45.350;5.578;2024-02-04T05:32:47;8.05;;;4.63;;
43891;SDS011;29555;45.350;5.578;2024-02-04T05:35:12;7.13;;;4.57;;
43891;SDS011;29555;45.350;5.578;2024-02-04T05:37:38;5.75;;;3.70;;
43891;SDS011;29555;45.350;5.578;2024-02-04T05:40:03;5.93;;;3.72;;
43891;SDS011;29555;45.350;5.578;2024-02-04T05:42:29;8.57;;;5.30;;
43891;SDS011;29555;45.350;5.578;2024-02-04T05:44:56;7.60;;;4.93;;
43891;SDS011;29555;45.350;5.578;2024-02-04T05:47:22;9.68;;;6.53;;
43891;SDS011;29555;45.350;5.578;2024-02-04T05:49:48;8.63;;;5.35;;
43891;SDS011;29555;45.350;5.578;2024-02-04T05:52:14;8.95;;;5.60;;
43891;SDS011;29555;45.350;5.578;2024-02-04T05:54:39;5.63;;;2.92;;
43891;SDS011;29555;45.350;5.578;2024-02-04T05:57:05;3.63;;;2.92;;
43891;SDS011;29555;45.350;5.578;2024-02-04T05:59:31;5.43;;;4.03;;
43891;SDS011;29555;45.350;5.578;2024-02-04T06:01:56;16.75;;;13.70;;
43891;SDS011;29555;45.350;5.578;2024-02-04T06:04:21;6.75;;;5.10;;
43891;SDS011;29555;45.350;5.578;2024-02-04T06:06:47;3.42;;;2.50;;
43891;SDS011;29555;45.350;5.578;2024-02-04T06:09:12;2.38;;;2.10;;
43891;SDS011;29555;45.350;5.578;2024-02-04T06:11:38;2.65;;;2.10;;
43891;SDS011;29555;45.350;5.578;2024-02-04T06:14:04;4.30;;;2.38;;
43891;SDS011;29555;45.350;5.578;2024-02-04T06:16:29;5.00;;;2.28;;
43891;SDS011;29555;45.350;5.578;2024-02-04T06:18:55;3.85;;;2.25;;
43891;SDS011;29555;45.350;5.578;2024-02-04T06:21:22;5.05;;;2.53;;
43891;SDS011;29555;45.350;5.578;2024-02-04T06:23:47;4.40;;;2.38;;
43891;SDS011;29555;45.350;5.578;2024-02-04T06:26:13;4.30;;;3.15;;
43891;SDS011;29555;45.350;5.578;2024-02-04T06:28:38;5.60;;;3.78;;
43891;SDS011;29555;45.350;5.578;2024-02-04T06:31:04;5.25;;;3.15;;
43891;SDS011;29555;45.350;5.578;2024-02-04T06:33:29;4.43;;;3.45;;
43891;SDS011;29555;45.350;5.578;2024-02-04T06:35:54;4.72;;;3.00;;
43891;SDS011;29555;45.350;5.578;2024-02-04T06:38:21;5.18;;;3.08;;
43891;SDS011;29555;45.350;5.578;2024-02-04T06:40:46;3.55;;;2.40;;
43891;SDS011;29555;45.350;5.578;2024-02-04T06:43:12;2.42;;;2.00;;
43891;SDS011;29555;45.350;5.578;2024-02-04T06:45:37;4.60;;;3.10;;
43891;SDS011;29555;45.350;5.578;2024-02-04T06:48:02;4.75;;;2.90;;
43891;SDS011;29555;45.350;5.578;2024-02-04T06:50:28;6.07;;;4.15;;
43891;SDS011;29555;45.350;5.578;2024-02-04T06:52:53;4.68;;;3.50;;
43891;SDS011;29555;45.350;5.578;2024-02-04T06:55:19;6.30;;;3.45;;
43891;SDS011;29555;45.350;5.578;2024-02-04T06:57:44;4.65;;;3.03;;
43891;SDS011;29555;45.350;5.578;2024-02-04T07:00:10;8.27;;;3.63;;
43891;SDS011;29555;45.350;5.578;2024-02-04T07:02:36;6.00;;;3.38;;
43891;SDS011;29555;45.350;5.578;2024-02-04T07:05:02;7.00;;;3.63;;
43891;SDS011;29555;45.350;5.578;2024-02-04T07:07:28;4.07;;;2.85;;
43891;SDS011;29555;45.350;5.578;2024-02-04T07:09:53;5.45;;;3.55;;
43891;SDS011;29555;45.350;5.578;2024-02-04T07:12:19;4.70;;;2.47;;
43891;SDS011;29555;45.350;5.578;2024-02-04T07:14:44;5.90;;;3.50;;
43891;SDS011;29555;45.350;5.578;2024-02-04T07:17:09;5.95;;;2.67;;
43891;SDS011;29555;45.350;5.578;2024-02-04T07:19:36;9.02;;;3.83;;
43891;SDS011;29555;45.350;5.578;2024-02-04T07:22:02;3.42;;;3.10;;
43891;SDS011;29555;45.350;5.578;2024-02-04T07:24:28;11.75;;;4.80;;
43891;SDS011;29555;45.350;5.578;2024-02-04T07:26:53;7.97;;;4.85;;
43891;SDS011;29555;45.350;5.578;2024-02-04T07:29:19;4.53;;;3.55;;
43891;SDS011;29555;45.350;5.578;2024-02-04T07:31:44;5.88;;;3.40;;
43891;SDS011;29555;45.350;5.578;2024-02-04T07:34:10;7.53;;;4.68;;
43891;SDS011;29555;45.350;5.578;2024-02-04T07:36:35;7.05;;;3.53;;
43891;SDS011;29555;45.350;5.578;2024-02-04T07:39:00;6.80;;;3.95;;
43891;SDS011;29555;45.350;5.578;2024-02-04T07:41:29;8.25;;;3.97;;
43891;SDS011;29555;45.350;5.578;2024-02-04T07:43:55;11.38;;;5.45;;
43891;SDS011;29555;45.350;5.578;2024-02-04T07:46:20;11.85;;;5.97;;
43891;SDS011;29555;45.350;5.578;2024-02-04T07:48:46;7.55;;;5.03;;
43891;SDS011;29555;45.350;5.578;2024-02-04T07:51:11;7.10;;;4.70;;
43891;SDS011;29555;45.350;5.578;2024-02-04T07:53:37;9.35;;;5.18;;
43891;SDS011;29555;45.350;5.578;2024-02-04T07:56:03;7.05;;;4.35;;
43891;SDS011;29555;45.350;5.578;2024-02-04T07:58:31;4.72;;;3.40;;
43891;SDS011;29555;45.350;5.578;2024-02-04T08:00:57;11.07;;;4.47;;
43891;SDS011;29555;45.350;5.578;2024-02-04T08:03:22;9.18;;;4.32;;
43891;SDS011;29555;45.350;5.578;2024-02-04T08:05:48;8.60;;;4.35;;
43891;SDS011;29555;45.350;5.578;2024-02-04T08:08:13;7.95;;;4.07;;
43891;SDS011;29555;45.350;5.578;2024-02-04T08:10:38;8.07;;;4.07;;
43891;SDS011;29555;45.350;5.578;2024-02-04T08:13:04;4.78;;;3.38;;
43891;SDS011;29555;45.350;5.578;2024-02-04T08:15:29;7.07;;;4.18;;
43891;SDS011;29555;45.350;5.578;2024-02-04T08:17:55;6.53;;;3.53;;
43891;SDS011;29555;45.350;5.578;2024-02-04T08:20:20;6.40;;;4.68;;
43891;SDS011;29555;45.350;5.578;2024-02-04T08:22:46;6.75;;;3.85;;
43891;SDS011;29555;45.350;5.578;2024-02-04T08:25:12;5.90;;;2.40;;
43891;SDS011;29555;45.350;5.578;2024-02-04T08:27:37;5.35;;;3.05;;
43891;SDS011;29555;45.350;5.578;2024-02-04T08:30:03;8.93;;;3.95;;
43891;SDS011;29555;45.350;5.578;2024-02-04T08:32:30;5.18;;;3.17;;
43891;SDS011;29555;45.350;5.578;2024-02-04T08:34:55;8.27;;;3.25;;
43891;SDS011;29555;45.350;5.578;2024-02-04T08:37:21;4.00;;;3.00;;
43891;SDS011;29555;45.350;5.578;2024-02-04T08:39:46;6.25;;;2.90;;
43891;SDS011;29555;45.350;5.578;2024-02-04T08:42:12;5.47;;;3.40;;
43891;SDS011;29555;45.350;5.578;2024-02-04T08:44:37;6.57;;;3.17;;
43891;SDS011;29555;45.350;5.578;2024-02-04T08:47:02;5.85;;;3.50;;
43891;SDS011;29555;45.350;5.578;2024-02-04T08:49:29;6.32;;;4.43;;
43891;SDS011;29555;45.350;5.578;2024-02-04T08:51:54;5.97;;;3.78;;
43891;SDS011;29555;45.350;5.578;2024-02-04T08:54:20;6.35;;;4.13;;
43891;SDS011;29555;45.350;5.578;2024-02-04T08:56:45;7.55;;;4.57;;
43891;SDS011;29555;45.350;5.578;2024-02-04T08:59:11;9.68;;;4.57;;
43891;SDS011;29555;45.350;5.578;2024-02-04T09:01:36;12.50;;;3.72;;
43891;SDS011;29555;45.350;5.578;2024-02-04T09:04:01;7.70;;;4.65;;
43891;SDS011;29555;45.350;5.578;2024-02-04T09:06:27;6.47;;;3.70;;
43891;SDS011;29555;45.350;5.578;2024-02-04T09:08:52;6.30;;;3.22;;
43891;SDS011;29555;45.350;5.578;2024-02-04T09:11:18;5.97;;;3.08;;
43891;SDS011;29555;45.350;5.578;2024-02-04T09:13:46;5.68;;;4.05;;
43891;SDS011;29555;45.350;5.578;2024-02-04T09:16:12;5.72;;;2.75;;
43891;SDS011;29555;45.350;5.578;2024-02-04T09:18:37;5.57;;;3.13;;
43891;SDS011;29555;45.350;5.578;2024-02-04T09:21:02;7.07;;;3.65;;
43891;SDS011;29555;45.350;5.578;2024-02-04T09:23:28;6.15;;;4.28;;
43891;SDS011;29555;45.350;5.578;2024-02-04T09:25:53;12.63;;;6.28;;
43891;SDS011;29555;45.350;5.578;2024-02-04T09:28:19;8.80;;;4.68;;
43891;SDS011;29555;45.350;5.578;2024-02-04T09:30:45;10.85;;;5.60;;
43891;SDS011;29555;45.350;5.578;2024-02-04T09:33:11;19.92;;;9.27;;
43891;SDS011;29555;45.350;5.578;2024-02-04T09:35:36;15.25;;;6.35;;
43891;SDS011;29555;45.350;5.578;2024-02-04T09:38:02;10.18;;;5.68;;
43891;SDS011;29555;45.350;5.578;2024-02-04T09:40:28;10.10;;;6.55;;
43891;SDS011;29555;45.350;5.578;2024-02-04T09:42:54;12.18;;;6.70;;
43891;SDS011;29555;45.350;5.578;2024-02-04T09:45:21;10.95;;;4.78;;
43891;SDS011;29555;45.350;5.578;2024-02-04T09:47:46;3.55;;;2.95;;
43891;SDS011;29555;45.350;5.578;2024-02-04T09:50:13;3.42;;;2.47;;
43891;SDS011;29555;45.350;5.578;2024-02-04T09:52:39;6.45;;;4.15;;
43891;SDS011;29555;45.350;5.578;2024-02-04T09:55:10;8.10;;;4.85;;
43891;SDS011;29555;45.350;5.578;2024-02-04T09:57:40;3.97;;;2.97;;
43891;SDS011;29555;45.350;5.578;2024-02-04T10:00:06;15.93;;;7.70;;
43891;SDS011;29555;45.350;5.578;2024-02-04T10:02:33;10.20;;;6.07;;
43891;SDS011;29555;45.350;5.578;2024-02-04T10:04:59;27.15;;;14.60;;
43891;SDS011;29555;45.350;5.578;2024-02-04T10:07:24;14.00;;;9.15;;
43891;SDS011;29555;45.350;5.578;2024-02-04T10:09:50;13.77;;;8.80;;
43891;SDS011;29555;45.350;5.578;2024-02-04T10:12:16;14.38;;;10.35;;
43891;SDS011;29555;45.350;5.578;2024-02-04T10:14:42;7.15;;;4.90;;
43891;SDS011;29555;45.350;5.578;2024-02-04T10:17:07;19.63;;;10.05;;
43891;SDS011;29555;45.350;5.578;2024-02-04T10:19:33;14.20;;;8.75;;
43891;SDS011;29555;45.350;5.578;2024-02-04T10:21:59;5.22;;;3.63;;
43891;SDS011;29555;45.350;5.578;2024-02-04T10:24:25;15.77;;;3.53;;
43891;SDS011;29555;45.350;5.578;2024-02-04T10:26:51;3.25;;;2.05;;
43891;SDS011;29555;45.350;5.578;2024-02-04T10:29:17;3.97;;;2.80;;
43891;SDS011;29555;45.350;5.578;2024-02-04T10:31:43;7.80;;;2.80;;
43891;SDS011;29555;45.350;5.578;2024-02-04T10:34:09;18.63;;;5.43;;
43891;SDS011;29555;45.350;5.578;2024-02-04T10:36:34;68.32;;;28.95;;
43891;SDS011;29555;45.350;5.578;2024-02-04T10:38:59;31.02;;;15.20;;
43891;SDS011;29555;45.350;5.578;2024-02-04T10:41:25;11.57;;;5.88;;
43891;SDS011;29555;45.350;5.578;2024-02-04T10:43:51;6.47;;;4.00;;
43891;SDS011;29555;45.350;5.578;2024-02-04T10:46:19;6.85;;;3.67;;
43891;SDS011;29555;45.350;5.578;2024-02-04T10:48:48;10.38;;;5.07;;
43891;SDS011;29555;45.350;5.578;2024-02-04T10:51:19;7.18;;;5.10;;
43891;SDS011;29555;45.350;5.578;2024-02-04T10:53:50;5.43;;;3.08;;
43891;SDS011;29555;45.350;5.578;2024-02-04T10:56:18;6.22;;;3.83;;
43891;SDS011;29555;45.350;5.578;2024-02-04T10:58:47;7.35;;;3.38;;
43891;SDS011;29555;45.350;5.578;2024-02-04T11:01:13;6.18;;;4.03;;
43891;SDS011;29555;45.350;5.578;2024-02-04T11:03:39;4.80;;;3.10;;
43891;SDS011;29555;45.350;5.578;2024-02-04T11:06:05;5.68;;;3.75;;
43891;SDS011;29555;45.350;5.578;2024-02-04T11:08:32;3.30;;;2.85;;
43891;SDS011;29555;45.350;5.578;2024-02-04T11:10:59;7.97;;;3.40;;
43891;SDS011;29555;45.350;5.578;2024-02-04T11:13:25;3.95;;;2.53;;
43891;SDS011;29555;45.350;5.578;2024-02-04T11:15:52;5.00;;;3.00;;
43891;SDS011;29555;45.350;5.578;2024-02-04T11:18:30;4.53;;;3.13;;
43891;SDS011;29555;45.350;5.578;2024-02-04T11:21:18;5.53;;;2.85;;
43891;SDS011;29555;45.350;5.578;2024-02-04T11:26:28;5.60;;;4.32;;
43891;SDS011;29555;45.350;5.578;2024-02-04T11:28:54;8.60;;;3.78;;
43891;SDS011;29555;45.350;5.578;2024-02-04T11:31:20;5.93;;;3.83;;
43891;SDS011;29555;45.350;5.578;2024-02-04T11:33:45;8.90;;;4.43;;
43891;SDS011;29555;45.350;5.578;2024-02-04T11:36:14;3.90;;;3.00;;
43891;SDS011;29555;45.350;5.578;2024-02-04T11:38:43;9.30;;;3.92;;
43891;SDS011;29555;45.350;5.578;2024-02-04T11:41:08;7.03;;;4.97;;
43891;SDS011;29555;45.350;5.578;2024-02-04T11:43:34;8.20;;;4.20;;
43891;SDS011;29555;45.350;5.578;2024-02-04T11:46:02;4.35;;;2.60;;
43891;SDS011;29555;45.350;5.578;2024-02-04T11:48:29;10.02;;;4.53;;
43891;SDS011;29555;45.350;5.578;2024-02-04T11:50:56;6.30;;;4.10;;
43891;SDS011;29555;45.350;5.578;2024-02-04T11:53:23;6.53;;;5.30;;
43891;SDS011;29555;45.350;5.578;2024-02-04T11:55:51;6.07;;;3.85;;
43891;SDS011;29555;45.350;5.578;2024-02-04T11:58:17;5.70;;;3.90;;
43891;SDS011;29555;45.350;5.578;2024-02-04T12:00:43;11.70;;;3.83;;
43891;SDS011;29555;45.350;5.578;2024-02-04T12:03:10;7.32;;;3.45;;
43891;SDS011;29555;45.350;5.578;2024-02-04T12:05:35;4.85;;;3.13;;
43891;SDS011;29555;45.350;5.578;2024-02-04T12:08:02;8.80;;;4.90;;
43891;SDS011;29555;45.350;5.578;2024-02-04T12:10:32;7.80;;;4.35;;
43891;SDS011;29555;45.350;5.578;2024-02-04T12:13:02;13.10;;;3.80;;
43891;SDS011;29555;45.350;5.578;2024-02-04T12:15:28;6.30;;;3.28;;
43891;SDS011;29555;45.350;5.578;2024-02-04T12:17:54;5.75;;;3.30;;
43891;SDS011;29555;45.350;5.578;2024-02-04T12:20:19;6.85;;;4.28;;
43891;SDS011;29555;45.350;5.578;2024-02-04T12:22:44;6.68;;;4.72;;
43891;SDS011;29555;45.350;5.578;2024-02-04T12:25:10;6.45;;;4.28;;
43891;SDS011;29555;45.350;5.578;2024-02-04T12:27:36;7.00;;;3.85;;
43891;SDS011;29555;45.350;5.578;2024-02-04T12:30:01;5.28;;;3.53;;
43891;SDS011;29555;45.350;5.578;2024-02-04T12:32:27;15.20;;;8.75;;
43891;SDS011;29555;45.350;5.578;2024-02-04T12:34:53;9.18;;;7.78;;
43891;SDS011;29555;45.350;5.578;2024-02-04T12:37:21;6.30;;;3.55;;
43891;SDS011;29555;45.350;5.578;2024-02-04T12:39:47;6.68;;;3.78;;
43891;SDS011;29555;45.350;5.578;2024-02-04T12:42:16;6.60;;;4.18;;
43891;SDS011;29555;45.350;5.578;2024-02-04T12:44:46;9.05;;;5.07;;
43891;SDS011;29555;45.350;5.578;2024-02-04T12:47:18;9.00;;;5.22;;
43891;SDS011;29555;45.350;5.578;2024-02-04T12:49:44;4.47;;;3.55;;
43891;SDS011;29555;45.350;5.578;2024-02-04T12:52:09;4.18;;;3.22;;
43891;SDS011;29555;45.350;5.578;2024-02-04T12:54:44;6.22;;;3.88;;
43891;SDS011;29555;45.350;5.578;2024-02-04T12:57:10;4.72;;;3.35;;
43891;SDS011;29555;45.350;5.578;2024-02-04T12:59:46;4.95;;;3.25;;
43891;SDS011;29555;45.350;5.578;2024-02-04T13:02:13;11.98;;;7.65;;
43891;SDS011;29555;45.350;5.578;2024-02-04T13:04:40;56.90;;;28.70;;
43891;SDS011;29555;45.350;5.578;2024-02-04T13:07:07;21.65;;;13.30;;
43891;SDS011;29555;45.350;5.578;2024-02-04T13:09:37;12.43;;;7.55;;
43891;SDS011;29555;45.350;5.578;2024-02-04T13:12:06;22.30;;;13.35;;
43891;SDS011;29555;45.350;5.578;2024-02-04T13:14:42;40.55;;;19.40;;
43891;SDS011;29555;45.350;5.578;2024-02-04T13:17:09;10.75;;;7.57;;
43891;SDS011;29555;45.350;5.578;2024-02-04T13:19:35;10.10;;;4.55;;
43891;SDS011;29555;45.350;5.578;2024-02-04T13:22:04;10.00;;;5.13;;
43891;SDS011;29555;45.350;5.578;2024-02-04T13:24:31;12.57;;;7.80;;
43891;SDS011;29555;45.350;5.578;2024-02-04T13:26:57;9.48;;;5.82;;
43891;SDS011;29555;45.350;5.578;2024-02-04T13:29:23;5.88;;;4.10;;
43891;SDS011;29555;45.350;5.578;2024-02-04T13:31:49;8.52;;;4.43;;
43891;SDS011;29555;45.350;5.578;2024-02-04T13:34:15;11.75;;;3.72;;
43891;SDS011;29555;45.350;5.578;2024-02-04T13:36:41;4.93;;;4.00;;
43891;SDS011;29555;45.350;5.578;2024-02-04T13:39:06;4.40;;;2.83;;
43891;SDS011;29555;45.350;5.578;2024-02-04T13:41:32;23.60;;;13.38;;
43891;SDS011;29555;45.350;5.578;2024-02-04T13:43:57;16.90;;;7.88;;
43891;SDS011;29555;45.350;5.578;2024-02-04T13:46:23;11.68;;;5.97;;
43891;SDS011;29555;45.350;5.578;2024-02-04T13:48:48;6.78;;;4.43;;
43891;SDS011;29555;45.350;5.578;2024-02-04T13:51:14;6.55;;;4.55;;
43891;SDS011;29555;45.350;5.578;2024-02-04T13:53:40;12.90;;;8.57;;
43891;SDS011;29555;45.350;5.578;2024-02-04T13:56:05;15.25;;;7.93;;
43891;SDS011;29555;45.350;5.578;2024-02-04T13:58:31;7.53;;;4.90;;
43891;SDS011;29555;45.350;5.578;2024-02-04T14:00:56;12.50;;;5.70;;
43891;SDS011;29555;45.350;5.578;2024-02-04T14:03:22;12.07;;;5.40;;
43891;SDS011;29555;45.350;5.578;2024-02-04T14:05:47;16.77;;;7.10;;
43891;SDS011;29555;45.350;5.578;2024-02-04T14:08:13;7.07;;;4.60;;
43891;SDS011;29555;45.350;5.578;2024-02-04T14:10:39;9.32;;;5.72;;
43891;SDS011;29555;45.350;5.578;2024-02-04T14:13:05;11.07;;;5.05;;
43891;SDS011;29555;45.350;5.578;2024-02-04T14:15:31;16.05;;;6.50;;
43891;SDS011;29555;45.350;5.578;2024-02-04T14:17:56;8.85;;;4.38;;
43891;SDS011;29555;45.350;5.578;2024-02-04T14:20:22;7.63;;;5.10;;
43891;SDS011;29555;45.350;5.578;2024-02-04T14:22:48;17.52;;;8.80;;
43891;SDS011;29555;45.350;5.578;2024-02-04T14:25:13;8.15;;;4.78;;
43891;SDS011;29555;45.350;5.578;2024-02-04T14:27:38;6.70;;;4.07;;
43891;SDS011;29555;45.350;5.578;2024-02-04T14:30:04;11.00;;;5.82;;
43891;SDS011;29555;45.350;5.578;2024-02-04T14:32:31;8.32;;;5.30;;
43891;SDS011;29555;45.350;5.578;2024-02-04T14:34:57;6.78;;;3.60;;
43891;SDS011;29555;45.350;5.578;2024-02-04T14:37:23;7.28;;;4.80;;
43891;SDS011;29555;45.350;5.578;2024-02-04T14:39:48;7.68;;;4.20;;
43891;SDS011;29555;45.350;5.578;2024-02-04T14:42:14;8.90;;;3.78;;